Time;durP1;ratioP1;P1;durP2;ratioP2;P2;SDS_P1;SDS_P2;PMS_P1;PMS_P2;Temp;Humidity;BMP_temperature;BMP_pressure;BME280_temperature;BME280_humidity;BME280_pressure;Samples;Min_cycle;Max_cycle;Signal;HPM_P1;HPM_P2
2021/04/26 00:01:10;;;;;;;5.32;1.35;;;5.50;94.00;;;;;;5092864;28;20028;-84
2021/04/26 00:03:36;;;;;;;6.68;2.17;;;5.50;94.00;;;;;;5090991;28;20435;-83
2021/04/26 00:06:02;;;;;;;5.05;2.00;;;5.50;94.00;;;;;;5091483;28;20471;-84
2021/04/26 00:08:27;;;;;;;7.63;2.45;;;5.50;94.00;;;;;;5091521;28;20078;-84
2021/04/26 00:10:53;;;;;;;6.32;1.73;;;5.40;94.00;;;;;;5091296;28;20028;-84
2021/04/26 00:13:19;;;;;;;8.68;1.73;;;5.40;94.00;;;;;;5093100;28;20068;-83
2021/04/26 00:15:45;;;;;;;4.63;1.40;;;5.40;94.00;;;;;;5101302;28;20031;-84
2021/04/26 00:18:11;;;;;;;6.57;1.80;;;5.40;94.10;;;;;;5098222;28;20028;-83
2021/04/26 00:20:37;;;;;;;5.53;1.80;;;5.30;94.10;;;;;;5097488;28;20059;-84
2021/04/26 00:23:03;;;;;;;5.03;1.60;;;5.30;94.10;;;;;;5105046;28;20020;-84
2021/04/26 00:25:29;;;;;;;6.00;1.45;;;5.30;94.10;;;;;;5106922;28;20093;-84
2021/04/26 00:27:56;;;;;;;4.43;1.45;;;5.30;94.20;;;;;;5100656;28;20121;-85
2021/04/26 00:30:23;;;;;;;4.25;1.67;;;5.20;94.20;;;;;;5096161;28;20027;-85
2021/04/26 00:32:49;;;;;;;5.15;1.60;;;5.20;94.20;;;;;;5101688;28;20036;-83
2021/04/26 00:35:16;;;;;;;4.50;1.52;;;5.20;94.30;;;;;;5097029;28;20024;-83
2021/04/26 00:37:43;;;;;;;3.47;1.25;;;5.20;94.30;;;;;;5095137;28;20032;-85
2021/04/26 00:40:10;;;;;;;6.50;1.45;;;5.10;94.30;;;;;;5095676;28;20028;-84
2021/04/26 00:42:36;;;;;;;6.70;1.90;;;5.10;94.40;;;;;;5096126;28;20039;-84
2021/04/26 00:45:07;;;;;;;4.43;1.40;;;5.10;94.30;;;;;;5096052;28;20377;-84
2021/04/26 00:47:33;;;;;;;3.42;1.52;;;5.10;94.30;;;;;;5096234;28;20023;-84
2021/04/26 00:49:59;;;;;;;4.15;1.60;;;5.10;94.40;;;;;;5094888;28;20021;-83
2021/04/26 00:52:24;;;;;;;5.65;1.63;;;5.00;94.30;;;;;;5095850;28;20102;-85
2021/04/26 00:54:50;;;;;;;3.08;1.30;;;5.00;94.40;;;;;;5094722;28;20024;-86
2021/04/26 00:57:16;;;;;;;5.47;1.88;;;5.00;94.40;;;;;;5095899;28;20062;-85
2021/04/26 00:59:42;;;;;;;6.57;1.60;;;4.90;94.40;;;;;;5094683;28;20119;-83
2021/04/26 01:02:07;;;;;;;3.75;1.17;;;4.90;94.50;;;;;;5094297;28;20044;-85
2021/04/26 01:04:34;;;;;;;4.97;1.50;;;4.90;94.50;;;;;;5094424;28;20058;-84
2021/04/26 01:06:59;;;;;;;4.93;1.40;;;4.90;94.50;;;;;;5094379;28;20043;-85
2021/04/26 01:09:25;;;;;;;4.18;1.48;;;4.90;94.50;;;;;;5093938;28;20020;-84
2021/04/26 01:12:28;;;;;;;6.93;1.80;;;4.90;94.50;;;;;;5094243;28;20040;-84
2021/04/26 01:14:58;;;;;;;3.97;1.42;;;4.80;94.60;;;;;;5093919;28;20028;-83
2021/04/26 01:17:31;;;;;;;7.25;2.10;;;4.80;94.70;;;;;;5100226;28;20031;-83
2021/04/26 01:20:21;;;;;;;5.45;1.60;;;4.80;94.70;;;;;;5102529;28;20499;-84
2021/04/26 01:23:08;;;;;;;6.03;1.60;;;4.70;94.70;;;;;;5102210;28;20474;-83
2021/04/26 01:25:37;;;;;;;6.70;1.42;;;4.70;94.90;;;;;;5103078;28;20027;-85
2021/04/26 01:28:09;;;;;;;5.63;1.40;;;4.70;94.90;;;;;;5104121;28;20489;-82
2021/04/26 01:30:41;;;;;;;5.90;1.55;;;4.70;94.90;;;;;;5105485;28;20029;-84
2021/04/26 01:33:30;;;;;;;8.02;1.98;;;4.70;94.80;;;;;;5102859;28;20100;-83
2021/04/26 01:36:04;;;;;;;5.50;1.30;;;4.70;94.80;;;;;;5101848;28;20016;-82
2021/04/26 01:38:36;;;;;;;6.00;1.90;;;4.60;94.80;;;;;;5101358;28;20036;-83
2021/04/26 01:41:03;;;;;;;3.28;1.23;;;4.60;94.80;;;;;;5103053;28;20034;-83
2021/04/26 01:43:33;;;;;;;4.47;1.50;;;4.60;94.90;;;;;;5103537;28;20023;-83
2021/04/26 01:46:04;;;;;;;5.13;1.60;;;4.60;94.80;;;;;;5104471;28;20111;-80
2021/04/26 01:48:35;;;;;;;3.38;1.23;;;4.60;94.80;;;;;;5102227;28;20066;-83
2021/04/26 01:51:02;;;;;;;5.18;1.50;;;4.60;94.90;;;;;;5103766;28;20497;-85
2021/04/26 01:53:28;;;;;;;4.03;1.40;;;4.50;94.80;;;;;;5104079;27;20040;-83
2021/04/26 01:55:59;;;;;;;6.20;1.40;;;4.50;94.90;;;;;;5103922;28;20016;-83
2021/04/26 01:58:26;;;;;;;5.80;1.60;;;4.60;95.00;;;;;;5106085;28;20032;-83
2021/04/26 02:00:52;;;;;;;4.75;1.30;;;4.60;94.90;;;;;;5113762;28;20103;-82
2021/04/26 02:03:22;;;;;;;5.38;1.35;;;4.50;94.90;;;;;;5113678;28;20092;-82
2021/04/26 02:05:51;;;;;;;2.95;1.20;;;4.50;95.00;;;;;;5113470;28;20028;-84
2021/04/26 02:08:17;;;;;;;3.75;1.50;;;4.50;95.10;;;;;;5112775;28;20027;-83
2021/04/26 02:10:43;;;;;;;6.45;1.70;;;4.50;95.00;;;;;;5114569;28;20032;-84
2021/04/26 02:13:09;;;;;;;5.60;1.90;;;4.50;95.00;;;;;;5113373;28;20031;-83
2021/04/26 02:15:36;;;;;;;4.93;1.80;;;4.50;95.10;;;;;;5112650;28;20031;-84
2021/04/26 02:18:03;;;;;;;9.07;2.83;;;4.50;95.10;;;;;;5113052;28;20516;-82
2021/04/26 02:20:28;;;;;;;7.00;2.63;;;4.50;95.10;;;;;;5113249;27;20023;-81
2021/04/26 02:22:54;;;;;;;3.55;1.63;;;4.40;95.10;;;;;;5114091;28;20538;-81
2021/04/26 02:25:20;;;;;;;6.88;1.85;;;4.50;95.10;;;;;;5112407;28;20019;-81
2021/04/26 02:27:46;;;;;;;4.28;1.40;;;4.40;95.10;;;;;;5114149;28;20034;-86
2021/04/26 02:30:13;;;;;;;6.22;2.08;;;4.40;95.40;;;;;;5114268;28;20073;-84
2021/04/26 02:32:57;;;;;;;4.97;1.52;;;4.40;95.10;;;;;;5112521;28;20027;-84
2021/04/26 02:35:49;;;;;;;3.75;1.40;;;4.40;95.10;;;;;;5114268;28;20062;-84
2021/04/26 02:38:22;;;;;;;5.20;1.80;;;4.40;95.20;;;;;;5109921;28;20436;-84
2021/04/26 02:40:55;;;;;;;3.55;1.40;;;4.40;95.20;;;;;;5113850;28;20031;-83
2021/04/26 02:43:23;;;;;;;2.72;1.30;;;4.30;95.20;;;;;;5113798;28;20115;-83
2021/04/26 02:45:52;;;;;;;3.50;1.02;;;4.30;95.20;;;;;;5112879;28;20034;-83
2021/04/26 02:48:20;;;;;;;4.82;1.17;;;4.30;95.30;;;;;;5113794;28;20023;-84
2021/04/26 02:50:50;;;;;;;3.78;1.20;;;4.30;95.30;;;;;;5112477;28;20023;-83
2021/04/26 02:53:17;;;;;;;4.90;1.42;;;4.30;95.20;;;;;;5113768;27;20034;-83
2021/04/26 02:55:44;;;;;;;3.15;1.05;;;4.30;95.30;;;;;;5113783;28;20015;-83
2021/04/26 02:58:10;;;;;;;4.00;0.93;;;4.30;95.30;;;;;;5113824;28;20020;-84
2021/04/26 03:00:36;;;;;;;3.38;1.27;;;4.30;95.30;;;;;;5112340;28;20027;-84
2021/04/26 03:03:02;;;;;;;2.85;0.82;;;4.20;95.30;;;;;;5112401;28;20173;-84
2021/04/26 03:05:28;;;;;;;2.78;1.00;;;4.20;95.30;;;;;;5113841;28;20019;-84
2021/04/26 03:07:54;;;;;;;3.38;1.20;;;4.20;95.40;;;;;;5113747;28;20024;-83
2021/04/26 03:10:20;;;;;;;3.50;0.90;;;4.10;95.40;;;;;;5112684;28;20130;-84
2021/04/26 03:12:50;;;;;;;4.35;1.20;;;4.10;95.40;;;;;;5113560;28;20059;-84
2021/04/26 03:15:23;;;;;;;4.97;1.38;;;4.10;95.40;;;;;;5112234;28;20069;-83
2021/04/26 03:17:49;;;;;;;1.80;0.90;;;4.10;95.40;;;;;;5112790;28;20023;-82
2021/04/26 03:20:17;;;;;;;2.70;1.10;;;4.10;95.50;;;;;;5112415;28;20026;-84
2021/04/26 03:22:44;;;;;;;3.30;1.20;;;4.10;95.50;;;;;;5112786;28;20016;-84
2021/04/26 03:25:12;;;;;;;4.10;1.15;;;4.10;95.50;;;;;;5112773;28;20023;-84
2021/04/26 03:27:41;;;;;;;5.70;1.58;;;4.10;95.50;;;;;;5117169;28;20027;-82
2021/04/26 03:30:07;;;;;;;4.13;1.35;;;4.10;95.60;;;;;;5119409;28;20375;-81
2021/04/26 03:32:33;;;;;;;6.22;1.40;;;4.10;95.60;;;;;;5118277;28;20040;-83
2021/04/26 03:35:00;;;;;;;6.07;1.75;;;4.10;95.60;;;;;;5112393;28;20039;-84
2021/04/26 03:37:27;;;;;;;4.82;1.38;;;4.00;95.60;;;;;;5113248;28;20020;-85
2021/04/26 03:39:53;;;;;;;3.13;1.08;;;4.00;95.60;;;;;;5111883;28;20047;-84
2021/04/26 03:42:19;;;;;;;4.03;1.60;;;4.00;95.70;;;;;;5113406;28;20098;-82
2021/04/26 03:44:50;;;;;;;4.72;1.40;;;4.00;95.70;;;;;;5112198;28;20074;-83
2021/04/26 03:47:16;;;;;;;4.82;1.27;;;3.90;95.80;;;;;;5112135;28;20480;-83
2021/04/26 03:49:42;;;;;;;5.15;1.77;;;3.90;95.80;;;;;;5112269;28;20088;-84
2021/04/26 03:52:09;;;;;;;2.67;1.33;;;3.90;95.90;;;;;;5113595;28;20020;-84
2021/04/26 03:54:35;;;;;;;4.03;1.23;;;3.90;96.20;;;;;;5115226;28;20031;-84
2021/04/26 03:57:02;;;;;;;5.07;1.73;;;3.80;96.00;;;;;;5117422;28;20462;-82
2021/04/26 03:59:28;;;;;;;4.70;1.10;;;3.80;96.10;;;;;;5116302;28;20031;-85
2021/04/26 04:01:54;;;;;;;3.90;1.73;;;3.80;96.20;;;;;;5117198;27;20036;-83
2021/04/26 04:04:20;;;;;;;5.93;1.63;;;3.80;96.20;;;;;;5116070;28;20020;-85
2021/04/26 04:06:45;;;;;;;4.72;1.42;;;3.80;96.20;;;;;;5115906;28;20011;-84
2021/04/26 04:09:11;;;;;;;5.38;1.60;;;3.70;96.30;;;;;;5116280;28;20015;-83
2021/04/26 04:11:37;;;;;;;2.72;1.10;;;3.70;96.40;;;;;;5116424;28;20107;-82
2021/04/26 04:14:04;;;;;;;2.85;1.15;;;3.70;96.40;;;;;;5116212;28;20118;-82
2021/04/26 04:16:30;;;;;;;4.50;1.30;;;3.60;96.50;;;;;;5116469;28;20023;-83
2021/04/26 04:18:57;;;;;;;3.05;1.20;;;3.60;96.50;;;;;;5115845;28;20023;-82
2021/04/26 04:21:23;;;;;;;2.38;0.90;;;3.60;96.50;;;;;;5117286;28;20095;-85
2021/04/26 04:23:48;;;;;;;4.88;1.48;;;3.60;96.50;;;;;;5117224;28;20388;-81
2021/04/26 04:26:14;;;;;;;4.15;1.20;;;3.60;96.50;;;;;;5119359;28;20103;-80
2021/04/26 04:28:40;;;;;;;4.38;1.15;;;3.60;96.60;;;;;;5118764;28;20055;-85
2021/04/26 04:31:05;;;;;;;4.35;1.17;;;3.60;96.70;;;;;;5116109;28;20020;-82
2021/04/26 04:33:31;;;;;;;4.85;1.27;;;3.60;96.70;;;;;;5116214;28;20040;-82
2021/04/26 04:35:57;;;;;;;4.65;1.20;;;3.60;96.80;;;;;;5115262;28;20012;-83
2021/04/26 04:38:25;;;;;;;4.00;1.38;;;3.60;96.80;;;;;;5116793;28;20027;-84
2021/04/26 04:40:51;;;;;;;5.72;1.30;;;3.60;96.80;;;;;;5116424;28;20023;-83
2021/04/26 04:43:16;;;;;;;3.33;1.15;;;3.60;96.90;;;;;;5116495;27;20092;-84
2021/04/26 04:45:42;;;;;;;3.10;1.00;;;3.60;96.90;;;;;;5115124;28;20058;-83
2021/04/26 04:48:08;;;;;;;7.15;1.40;;;3.60;96.90;;;;;;5114841;28;20016;-85
2021/04/26 04:50:34;;;;;;;2.70;1.17;;;3.60;96.90;;;;;;5098510;28;20027;-83
2021/04/26 04:52:59;;;;;;;2.45;1.58;;;3.60;96.90;;;;;;5114637;28;20043;-84
2021/04/26 04:55:25;;;;;;;3.35;1.10;;;3.70;96.90;;;;;;5115125;28;20019;-82
2021/04/26 04:57:51;;;;;;;2.78;1.30;;;3.70;96.90;;;;;;5114668;28;20385;-80
2021/04/26 05:00:17;;;;;;;4.55;1.48;;;3.70;96.90;;;;;;5115874;28;20392;-85
2021/04/26 05:02:42;;;;;;;3.78;1.25;;;3.70;96.90;;;;;;5115926;28;20046;-83
2021/04/26 05:05:09;;;;;;;6.30;1.65;;;3.80;96.90;;;;;;5113151;28;20020;-83
2021/04/26 05:07:34;;;;;;;3.35;1.20;;;3.80;96.90;;;;;;5114768;28;20035;-84
2021/04/26 05:10:00;;;;;;;2.50;1.20;;;3.80;96.90;;;;;;5114579;28;20027;-83
2021/04/26 05:12:25;;;;;;;7.18;1.77;;;3.90;96.90;;;;;;5115901;28;20531;-83
2021/04/26 05:14:51;;;;;;;3.05;1.00;;;3.90;96.90;;;;;;5114304;28;20093;-83
2021/04/26 05:17:18;;;;;;;4.63;1.30;;;4.00;96.90;;;;;;5114544;28;20020;-82
2021/04/26 05:19:44;;;;;;;4.05;1.23;;;4.00;96.90;;;;;;5114789;28;20023;-84
2021/04/26 05:22:09;;;;;;;3.90;2.15;;;4.00;96.80;;;;;;5115451;27;20362;-84
2021/04/26 05:24:37;;;;;;;4.05;1.30;;;4.10;97.20;;;;;;5114915;28;20118;-81
2021/04/26 05:27:03;;;;;;;5.95;1.35;;;4.10;96.80;;;;;;5118075;28;20019;-83
2021/04/26 05:29:28;;;;;;;6.07;1.80;;;4.20;97.00;;;;;;5115890;28;20094;-82
2021/04/26 05:31:55;;;;;;;4.95;1.45;;;4.20;96.70;;;;;;5115563;28;20028;-83
2021/04/26 05:34:21;;;;;;;3.92;1.30;;;4.30;96.70;;;;;;5114399;28;20024;-84
2021/04/26 05:36:47;;;;;;;5.22;1.38;;;4.30;96.60;;;;;;5115586;28;20451;-83
2021/04/26 05:39:13;;;;;;;4.57;1.20;;;4.40;96.50;;;;;;5114260;28;20084;-84
2021/04/26 05:41:38;;;;;;;4.50;1.50;;;4.50;96.50;;;;;;5115580;28;20080;-83
2021/04/26 05:44:05;;;;;;;6.28;1.63;;;4.50;96.50;;;;;;5113953;28;20421;-82
2021/04/26 05:46:30;;;;;;;2.60;1.25;;;4.60;96.40;;;;;;5114902;28;20068;-83
2021/04/26 05:48:56;;;;;;;7.10;1.50;;;4.60;96.40;;;;;;5114030;28;20024;-83
2021/04/26 05:51:22;;;;;;;3.53;1.15;;;4.70;96.40;;;;;;5113948;28;20023;-82
2021/04/26 05:53:47;;;;;;;5.78;1.65;;;4.70;96.40;;;;;;5113826;28;20034;-82
2021/04/26 05:56:13;;;;;;;6.55;1.45;;;4.80;96.30;;;;;;5115008;28;20020;-83
2021/04/26 05:58:39;;;;;;;7.53;1.60;;;4.80;96.30;;;;;;5115177;28;20409;-83
2021/04/26 06:01:05;;;;;;;4.28;1.60;;;4.90;96.20;;;;;;5115054;28;20028;-84
2021/04/26 06:03:30;;;;;;;4.00;1.58;;;4.90;96.10;;;;;;5113641;28;20097;-85
2021/04/26 06:05:59;;;;;;;4.78;1.55;;;5.00;96.10;;;;;;5114937;28;20031;-85
2021/04/26 06:08:25;;;;;;;4.97;1.50;;;5.00;96.10;;;;;;5114941;28;20106;-84
2021/04/26 06:10:51;;;;;;;4.13;1.50;;;5.10;96.10;;;;;;5113451;28;20110;-84
2021/04/26 06:13:17;;;;;;;2.83;1.38;;;5.10;96.10;;;;;;5114523;28;20063;-84
2021/04/26 06:15:44;;;;;;;6.75;2.72;;;5.20;96.10;;;;;;5114525;27;20015;-84
2021/04/26 06:18:10;;;;;;;4.40;1.70;;;5.20;95.90;;;;;;5113422;28;20032;-84
2021/04/26 06:20:37;;;;;;;5.75;2.00;;;5.30;95.80;;;;;;5113977;28;20456;-85
2021/04/26 06:23:02;;;;;;;5.00;1.45;;;5.40;95.60;;;;;;5115661;28;20226;-85
2021/04/26 06:25:28;;;;;;;6.35;1.67;;;5.40;95.60;;;;;;5113779;28;20138;-82
2021/04/26 06:27:54;;;;;;;7.30;1.67;;;5.50;95.50;;;;;;5114564;28;20165;-85
2021/04/26 06:30:20;;;;;;;5.65;1.60;;;5.60;95.40;;;;;;5113155;28;20041;-84
2021/04/26 06:32:45;;;;;;;4.40;1.65;;;5.60;95.30;;;;;;5114330;28;20024;-84
2021/04/26 06:35:11;;;;;;;5.90;2.15;;;5.70;95.30;;;;;;5114359;28;20488;-84
2021/04/26 06:37:37;;;;;;;4.68;1.85;;;5.70;95.10;;;;;;5114149;28;20031;-84
2021/04/26 06:40:03;;;;;;;7.30;2.47;;;5.80;95.00;;;;;;5113077;28;20027;-85
2021/04/26 06:42:29;;;;;;;2.47;1.10;;;5.80;95.00;;;;;;5113353;28;20098;-84
2021/04/26 06:44:55;;;;;;;5.55;1.92;;;5.80;95.00;;;;;;5114485;28;20495;-84
2021/04/26 06:47:21;;;;;;;4.00;1.60;;;5.90;94.90;;;;;;5113277;28;20096;-85
2021/04/26 06:49:47;;;;;;;5.07;1.40;;;6.00;94.80;;;;;;5114472;28;20024;-85
2021/04/26 06:52:12;;;;;;;3.67;1.95;;;6.00;94.80;;;;;;5114101;28;20049;-83
2021/04/26 06:54:38;;;;;;;4.40;1.60;;;6.10;94.80;;;;;;5113347;28;20115;-84
2021/04/26 06:57:04;;;;;;;5.55;1.50;;;6.10;94.80;;;;;;5114690;28;20023;-84
2021/04/26 06:59:30;;;;;;;4.35;1.67;;;6.20;94.80;;;;;;5114964;28;20026;-83
2021/04/26 07:01:55;;;;;;;2.80;1.27;;;6.20;94.70;;;;;;5114064;28;20500;-84
2021/04/26 07:04:21;;;;;;;4.47;1.50;;;6.30;94.70;;;;;;5115412;28;20016;-82
2021/04/26 07:06:47;;;;;;;3.55;1.30;;;6.30;94.70;;;;;;5120922;28;20115;-81
2021/04/26 07:09:13;;;;;;;3.17;1.30;;;6.40;94.70;;;;;;5120393;28;20558;-85
2021/04/26 07:11:39;;;;;;;4.35;1.60;;;6.50;94.60;;;;;;5115838;28;20024;-80
2021/04/26 07:14:05;;;;;;;5.13;1.48;;;6.60;94.50;;;;;;5121146;28;20505;-81
2021/04/26 07:16:31;;;;;;;4.78;1.50;;;6.60;94.40;;;;;;5122591;28;20068;-81
2021/04/26 07:18:57;;;;;;;3.50;1.33;;;6.70;94.10;;;;;;5120342;28;20039;-83
2021/04/26 07:21:23;;;;;;;2.92;1.48;;;6.80;94.20;;;;;;5116789;28;20023;-82
2021/04/26 07:23:48;;;;;;;3.88;1.42;;;6.80;94.20;;;;;;5119946;28;20027;-82
2021/04/26 07:26:14;;;;;;;2.90;1.48;;;6.90;94.10;;;;;;5119506;28;20509;-80
2021/04/26 07:28:40;;;;;;;3.72;1.48;;;6.90;94.00;;;;;;5128346;28;20016;-84
2021/04/26 07:31:05;;;;;;;2.42;1.23;;;7.00;94.00;;;;;;5135345;28;20400;-83
2021/04/26 07:33:31;;;;;;;3.40;1.60;;;7.10;93.90;;;;;;5127570;28;20047;-83
2021/04/26 07:35:57;;;;;;;7.28;1.70;;;7.20;93.90;;;;;;5125617;28;20285;-82
2021/04/26 07:38:22;;;;;;;3.90;1.73;;;7.20;93.80;;;;;;5124036;28;20019;-85
2021/04/26 07:40:48;;;;;;;3.55;1.48;;;7.30;93.40;;;;;;5125744;28;20388;-85
2021/04/26 07:43:14;;;;;;;3.75;1.45;;;7.40;93.70;;;;;;5113174;28;20030;-85
2021/04/26 07:45:39;;;;;;;6.90;2.33;;;7.40;93.10;;;;;;5113948;28;20031;-85
2021/04/26 07:48:05;;;;;;;5.22;1.60;;;7.50;92.90;;;;;;5112493;28;20031;-85
2021/04/26 07:50:31;;;;;;;4.85;1.60;;;7.50;92.90;;;;;;5112933;28;20015;-85
2021/04/26 07:52:57;;;;;;;3.35;1.48;;;7.60;92.90;;;;;;5115076;28;20020;-84
2021/04/26 07:55:23;;;;;;;8.77;1.92;;;7.70;92.80;;;;;;5113829;28;20049;-85
2021/04/26 07:57:48;;;;;;;5.28;1.67;;;7.80;92.60;;;;;;5116002;28;20016;-85
2021/04/26 08:00:16;;;;;;;4.85;1.60;;;7.90;92.60;;;;;;5119462;28;20474;-84
2021/04/26 08:02:42;;;;;;;2.97;1.45;;;8.00;92.60;;;;;;5121713;28;20069;-82
2021/04/26 08:05:08;;;;;;;3.65;1.30;;;8.10;92.50;;;;;;5117925;28;20024;-85
2021/04/26 08:07:33;;;;;;;2.50;0.88;;;8.10;92.30;;;;;;5117081;28;20035;-84
2021/04/26 08:09:59;;;;;;;3.38;1.17;;;8.20;92.40;;;;;;5116184;28;20031;-85
2021/04/26 08:12:25;;;;;;;2.50;1.20;;;8.20;92.20;;;;;;5114597;28;20023;-86
2021/04/26 08:14:50;;;;;;;2.63;1.23;;;8.30;92.20;;;;;;5112835;28;20097;-85
2021/04/26 08:17:16;;;;;;;3.30;1.13;;;8.30;92.10;;;;;;5113412;28;20031;-86
2021/04/26 08:19:42;;;;;;;2.75;1.27;;;8.30;91.80;;;;;;5115079;28;20024;-85
2021/04/26 08:22:09;;;;;;;2.42;1.10;;;8.40;91.40;;;;;;5114243;28;20027;-86
2021/04/26 08:24:35;;;;;;;1.98;1.20;;;8.50;91.50;;;;;;5112325;28;20032;-84
2021/04/26 08:27:01;;;;;;;2.78;1.17;;;8.60;91.30;;;;;;5113295;28;20034;-84
2021/04/26 08:29:26;;;;;;;2.28;0.90;;;8.70;91.30;;;;;;5112400;28;20114;-83
2021/04/26 08:31:52;;;;;;;4.65;1.20;;;8.70;91.00;;;;;;5114569;28;20422;-82
2021/04/26 08:34:17;;;;;;;5.00;1.55;;;8.80;90.70;;;;;;5112556;28;20081;-83
2021/04/26 08:36:43;;;;;;;3.72;1.30;;;8.90;90.20;;;;;;5114102;28;20015;-85
2021/04/26 08:39:09;;;;;;;2.60;1.33;;;9.00;89.80;;;;;;5114490;28;20365;-84
2021/04/26 08:41:35;;;;;;;3.95;1.40;;;9.10;89.60;;;;;;5118770;28;20057;-83
2021/04/26 08:44:01;;;;;;;2.70;1.20;;;9.20;89.80;;;;;;5116731;28;20053;-84
2021/04/26 08:46:26;;;;;;;3.58;1.20;;;9.30;90.00;;;;;;5116390;28;20381;-85
2021/04/26 08:48:52;;;;;;;2.85;1.20;;;9.40;88.80;;;;;;5118280;28;20389;-85
2021/04/26 08:51:18;;;;;;;2.38;1.20;;;9.50;88.70;;;;;;5117952;28;20027;-84
2021/04/26 08:53:43;;;;;;;3.05;1.27;;;9.50;88.50;;;;;;5118290;28;20035;-84
2021/04/26 08:56:09;;;;;;;2.83;1.20;;;9.60;88.10;;;;;;5115906;28;20126;-82
2021/04/26 08:58:36;;;;;;;2.22;1.02;;;9.70;88.30;;;;;;5116242;28;20030;-85
2021/04/26 09:01:03;;;;;;;1.90;0.90;;;9.70;87.70;;;;;;5115598;28;20098;-85
2021/04/26 09:03:34;;;;;;;2.08;1.13;;;9.80;87.70;;;;;;5115712;28;20131;-86
2021/04/26 09:06:00;;;;;;;2.20;0.80;;;9.90;87.80;;;;;;5116829;28;20028;-85
2021/04/26 09:08:27;;;;;;;3.70;1.48;;;10.00;87.70;;;;;;5118084;28;20012;-86
2021/04/26 09:10:59;;;;;;;2.67;1.60;;;10.10;86.50;;;;;;5115685;28;20126;-85
2021/04/26 09:13:42;;;;;;;2.78;1.20;;;10.10;85.10;;;;;;5116842;28;20028;-85
2021/04/26 09:16:22;;;;;;;1.92;1.08;;;10.20;85.30;;;;;;5118911;28;20024;-85
2021/04/26 09:19:28;;;;;;;2.28;1.25;;;10.30;85.90;;;;;;5116093;28;20019;-85
2021/04/26 09:21:54;;;;;;;3.58;1.70;;;10.50;84.40;;;;;;5085076;28;20100;-84
2021/04/26 09:24:36;;;;;;;4.03;1.40;;;10.60;83.60;;;;;;5115380;28;20466;-84
2021/04/26 09:27:06;;;;;;;2.83;1.30;;;10.60;83.60;;;;;;5116662;28;20033;-85
2021/04/26 09:29:33;;;;;;;4.55;2.13;;;10.80;84.20;;;;;;5118802;28;20389;-83
2021/04/26 09:32:15;;;;;;;2.42;1.25;;;10.90;81.10;;;;;;5118821;28;20043;-85
2021/04/26 09:34:48;;;;;;;3.35;1.17;;;11.00;82.60;;;;;;5116448;28;20277;-81
2021/04/26 09:37:27;;;;;;;3.17;1.30;;;11.80;83.90;;;;;;5117079;28;20469;-85
2021/04/26 09:40:00;;;;;;;2.70;1.08;;;13.40;82.80;;;;;;5117544;28;20038;-83
2021/04/26 09:42:41;;;;;;;3.15;1.30;;;14.90;80.20;;;;;;5116222;28;20039;-84
2021/04/26 09:45:26;;;;;;;3.05;0.98;;;15.50;77.00;;;;;;5117330;28;20386;-84
2021/04/26 09:48:17;;;;;;;1.55;0.98;;;15.10;77.20;;;;;;5116733;28;20393;-83
2021/04/26 09:51:01;;;;;;;5.90;1.85;;;15.80;77.20;;;;;;5119252;28;20031;-83
2021/04/26 09:53:53;;;;;;;3.60;1.75;;;16.80;69.90;;;;;;5115841;28;20028;-85
2021/04/26 09:56:30;;;;;;;2.50;1.17;;;17.70;68.70;;;;;;5117047;28;20072;-84
2021/04/26 09:58:58;;;;;;;2.60;1.10;;;18.50;68.00;;;;;;5115635;28;20022;-85
2021/04/26 10:01:25;;;;;;;3.13;1.30;;;19.00;67.00;;;;;;5116826;28;20466;-85
2021/04/26 10:03:51;;;;;;;2.28;1.05;;;19.50;63.90;;;;;;5114502;28;20036;-85
2021/04/26 10:06:18;;;;;;;2.15;1.17;;;19.80;62.40;;;;;;5116432;28;20041;-84
2021/04/26 10:08:45;;;;;;;3.78;1.42;;;20.00;60.10;;;;;;5115149;28;20146;-84
2021/04/26 10:11:11;;;;;;;1.90;1.08;;;20.30;59.80;;;;;;5115784;28;20057;-86
2021/04/26 10:13:37;;;;;;;4.20;1.10;;;20.60;58.20;;;;;;5114977;28;20122;-85
2021/04/26 10:16:06;;;;;;;3.47;1.00;;;20.80;57.00;;;;;;5114502;28;20019;-87
2021/04/26 10:18:37;;;;;;;3.38;1.40;;;21.00;57.20;;;;;;5115437;28;20027;-85
2021/04/26 10:21:24;;;;;;;3.35;1.00;;;21.30;55.70;;;;;;5115969;27;20500;-87
2021/04/26 10:23:51;;;;;;;3.70;1.17;;;21.50;54.40;;;;;;5114403;28;20028;-87
2021/04/26 10:26:49;;;;;;;2.67;1.35;;;21.80;54.10;;;;;;5113680;28;20377;-86
2021/04/26 10:29:18;;;;;;;3.50;1.42;;;22.30;53.50;;;;;;5113999;28;20026;-83
2021/04/26 10:32:08;;;;;;;3.15;0.90;;;22.50;52.20;;;;;;5115228;28;20019;-86
2021/04/26 10:34:43;;;;;;;3.47;1.38;;;22.60;51.70;;;;;;5107475;28;20044;-85
2021/04/26 10:37:14;;;;;;;3.67;1.13;;;22.50;50.80;;;;;;5114842;28;20051;-84
2021/04/26 10:39:40;;;;;;;2.60;1.10;;;22.40;50.10;;;;;;5114644;28;20026;-84
2021/04/26 10:42:10;;;;;;;3.78;1.48;;;22.40;50.20;;;;;;5115335;28;20110;-85
2021/04/26 10:44:39;;;;;;;3.00;1.40;;;22.50;49.10;;;;;;5114957;28;20111;-86
2021/04/26 10:47:30;;;;;;;4.13;1.10;;;22.80;49.50;;;;;;5115435;28;20096;-87
2021/04/26 10:50:05;;;;;;;2.80;1.13;;;23.10;49.10;;;;;;5113598;28;20067;-83
2021/04/26 10:52:34;;;;;;;5.53;1.35;;;23.20;49.40;;;;;;5113311;28;20031;-83
2021/04/26 10:55:07;;;;;;;5.35;2.10;;;23.50;49.00;;;;;;5113649;28;20042;-84
2021/04/26 10:57:42;;;;;;;4.10;1.80;;;23.60;46.00;;;;;;5111966;28;20027;-84
2021/04/26 11:00:29;;;;;;;2.65;1.30;;;23.30;47.50;;;;;;5112408;28;20459;-83
2021/04/26 11:03:13;;;;;;;3.08;1.33;;;23.10;47.60;;;;;;5112678;28;20104;-85
2021/04/26 11:05:40;;;;;;;3.17;1.55;;;23.40;47.00;;;;;;5110790;28;20024;-83
2021/04/26 11:08:13;;;;;;;3.90;1.60;;;23.40;46.00;;;;;;5111946;28;20059;-83
2021/04/26 11:10:48;;;;;;;4.32;1.67;;;23.50;46.30;;;;;;5110328;28;20040;-85
2021/04/26 11:13:32;;;;;;;3.33;1.23;;;23.30;46.80;;;;;;5112085;28;20028;-86
2021/04/26 11:16:06;;;;;;;2.55;1.40;;;23.30;46.50;;;;;;5113618;28;20040;-86
2021/04/26 11:18:34;;;;;;;2.78;1.20;;;23.50;46.00;;;;;;5112451;28;20119;-87
2021/04/26 11:21:00;;;;;;;2.85;1.20;;;23.70;45.70;;;;;;5113867;28;20034;-86
2021/04/26 11:23:46;;;;;;;2.88;1.00;;;24.00;45.40;;;;;;5112465;28;20018;-87
2021/04/26 11:26:17;;;;;;;7.47;2.55;;;24.20;45.40;;;;;;5112559;28;20027;-85
2021/04/26 11:29:01;;;;;;;6.05;2.13;;;23.80;41.80;;;;;;5112771;28;20103;-84
2021/04/26 11:31:45;;;;;;;4.00;1.40;;;23.20;44.50;;;;;;5113897;28;20106;-85
2021/04/26 11:34:20;;;;;;;2.45;1.52;;;23.10;45.40;;;;;;5113143;28;20027;-83
2021/04/26 11:37:04;;;;;;;4.10;1.52;;;23.40;45.40;;;;;;5111886;28;20020;-83
2021/04/26 11:39:31;;;;;;;3.55;1.40;;;23.70;45.10;;;;;;5111864;28;20031;-83
2021/04/26 11:41:58;;;;;;;3.00;1.23;;;23.80;45.40;;;;;;5112652;28;20024;-82
2021/04/26 11:44:31;;;;;;;2.97;1.15;;;24.00;44.60;;;;;;5112024;28;20076;-85
2021/04/26 11:47:02;;;;;;;4.43;1.90;;;24.30;44.40;;;;;;5112192;28;20058;-86
2021/04/26 11:49:27;;;;;;;4.60;1.40;;;24.60;44.20;;;;;;5112975;28;20027;-86
2021/04/26 11:51:55;;;;;;;3.28;1.55;;;24.80;43.80;;;;;;5114542;28;20031;-86
2021/04/26 11:54:26;;;;;;;3.20;1.35;;;25.00;43.10;;;;;;5113403;28;20553;-85
2021/04/26 11:57:04;;;;;;;3.33;1.30;;;25.20;43.50;;;;;;5095209;28;20028;-87
2021/04/26 11:59:30;;;;;;;4.97;1.90;;;25.40;44.30;;;;;;5109053;28;20137;-86
2021/04/26 12:01:56;;;;;;;6.68;1.92;;;25.40;42.40;;;;;;5100991;28;20032;-85
2021/04/26 12:04:32;;;;;;;3.25;1.17;;;25.30;43.50;;;;;;5102763;28;20023;-84
2021/04/26 12:06:58;;;;;;;3.50;1.52;;;25.30;44.20;;;;;;5101980;28;20027;-87
2021/04/26 12:09:24;;;;;;;5.63;1.65;;;25.30;43.20;;;;;;5104292;28;20042;-86
2021/04/26 12:11:57;;;;;;;2.42;1.25;;;25.60;43.20;;;;;;5095837;28;20084;-87
2021/04/26 12:14:23;;;;;;;4.40;1.40;;;25.70;44.70;;;;;;5093969;28;20040;-86
2021/04/26 12:16:49;;;;;;;1.92;1.30;;;25.60;43.70;;;;;;5096194;28;20019;-87
2021/04/26 12:19:14;;;;;;;2.03;1.27;;;25.70;44.20;;;;;;5098471;28;20027;-88
2021/04/26 12:21:44;;;;;;;4.20;1.65;;;25.70;43.60;;;;;;5097770;28;20024;-90
2021/04/26 12:24:13;;;;;;;7.28;1.77;;;25.60;42.80;;;;;;5095629;28;20030;-84
2021/04/26 12:26:38;;;;;;;4.75;1.40;;;25.60;42.60;;;;;;5096382;28;20461;-85
2021/04/26 12:29:04;;;;;;;2.72;1.15;;;25.60;42.00;;;;;;5095956;28;20031;-84
2021/04/26 12:31:30;;;;;;;2.95;1.42;;;25.60;42.00;;;;;;5097236;28;20016;-88
2021/04/26 12:34:08;;;;;;;4.70;1.42;;;25.80;41.40;;;;;;5100677;28;20036;-87
2021/04/26 12:36:35;;;;;;;3.72;1.30;;;25.70;41.00;;;;;;5096885;28;20024;-85
2021/04/26 12:39:01;;;;;;;2.03;1.10;;;25.70;41.40;;;;;;5096774;28;20017;-87
2021/04/26 12:41:29;;;;;;;2.95;1.33;;;25.70;41.40;;;;;;5095452;28;20038;-84
2021/04/26 12:43:54;;;;;;;3.88;1.17;;;25.80;43.50;;;;;;5094854;28;20078;-84
2021/04/26 12:46:20;;;;;;;4.07;1.27;;;25.90;43.30;;;;;;5094433;28;20462;-85
2021/04/26 12:48:46;;;;;;;3.63;1.50;;;26.10;42.30;;;;;;5096101;28;20462;-85
2021/04/26 12:51:26;;;;;;;3.95;1.30;;;26.10;41.40;;;;;;5096008;28;20053;-84
2021/04/26 12:53:51;;;;;;;3.30;1.10;;;26.10;42.20;;;;;;5094564;28;20032;-83
2021/04/26 12:56:18;;;;;;;3.25;1.30;;;26.20;42.10;;;;;;5094788;28;20017;-83
2021/04/26 12:58:54;;;;;;;2.58;1.27;;;26.30;42.40;;;;;;5101726;28;20023;-84
2021/04/26 13:01:25;;;;;;;3.40;1.52;;;26.40;41.60;;;;;;5116394;28;20108;-85